Time;durP1;ratioP1;P1;durP2;ratioP2;P2;SDS_P1;SDS_P2;PMS_P1;PMS_P2;Temp;Humidity;BMP_temperature;BMP_pressure;BME280_temperature;BME280_humidity;BME280_pressure;Samples;Min_cycle;Max_cycle;Signal;HPM_P1;HPM_P2
2023/06/23 00:01:24;;;;;;;7.27;6.53;;;;;;;;;;5081261;28;20471;-81
2023/06/23 00:03:54;;;;;;;6.40;5.80;;;;;;;;;;5078307;28;20446;-81
2023/06/23 00:06:20;;;;;;;9.30;6.53;;;;;;;;;;5081596;28;20474;-81
2023/06/23 00:08:47;;;;;;;7.93;5.87;;;;;;;;;;5081652;28;20455;-81
2023/06/23 00:11:15;;;;;;;6.20;5.33;;;;;;;;;;5074022;28;20941;-82
2023/06/23 00:13:41;;;;;;;7.03;5.67;;;;;;;;;;5077270;28;20468;-81
2023/06/23 00:16:08;;;;;;;6.07;5.17;;;;;;;;;;5070391;28;20983;-81
2023/06/23 00:18:36;;;;;;;7.17;6.10;;;;;;;;;;5086295;28;20515;-82
2023/06/23 00:21:02;;;;;;;5.97;5.37;;;;;;;;;;5070896;28;20464;-81
2023/06/23 00:23:30;;;;;;;7.10;5.70;;;;;;;;;;5078876;28;20443;-81
2023/06/23 00:25:57;;;;;;;8.37;5.63;;;;;;;;;;5077540;28;20462;-81
2023/06/23 00:28:25;;;;;;;7.97;6.10;;;;;;;;;;5078728;28;20532;-81
2023/06/23 00:30:51;;;;;;;8.13;5.73;;;;;;;;;;5076163;28;20488;-80
2023/06/23 00:33:18;;;;;;;9.20;7.63;;;;;;;;;;5074423;28;20468;-81
2023/06/23 00:35:44;;;;;;;15.43;8.07;;;;;;;;;;5062965;28;20471;-80
2023/06/23 00:38:11;;;;;;;9.70;7.20;;;;;;;;;;5080038;28;20980;-80
2023/06/23 00:40:38;;;;;;;9.87;8.20;;;;;;;;;;5078694;28;20417;-80
2023/06/23 00:43:04;;;;;;;10.67;8.63;;;;;;;;;;5070392;28;20459;-82
2023/06/23 00:45:32;;;;;;;9.77;8.70;;;;;;;;;;5073841;28;20452;-81
2023/06/23 00:47:59;;;;;;;10.30;9.07;;;;;;;;;;5077880;28;20451;-81
2023/06/23 00:50:26;;;;;;;10.13;8.73;;;;;;;;;;5075577;28;20443;-81
2023/06/23 00:52:53;;;;;;;11.60;10.30;;;;;;;;;;5071393;28;20455;-82
2023/06/23 00:55:20;;;;;;;10.97;8.70;;;;;;;;;;5080825;28;20481;-82
2023/06/23 00:57:47;;;;;;;9.47;8.47;;;;;;;;;;5075806;28;20474;-82
2023/06/23 01:00:18;;;;;;;11.67;9.03;;;;;;;;;;5086073;28;20472;-81
2023/06/23 01:02:48;;;;;;;8.80;7.90;;;;;;;;;;5075354;28;20509;-81
2023/06/23 01:05:15;;;;;;;9.30;7.57;;;;;;;;;;5074983;28;20956;-81
2023/06/23 01:07:45;;;;;;;9.27;8.30;;;;;;;;;;5088329;28;20475;-80
2023/06/23 01:10:15;;;;;;;9.73;8.07;;;;;;;;;;5081795;28;20937;-80
2023/06/23 01:12:45;;;;;;;11.83;8.30;;;;;;;;;;5078324;28;20467;-81
2023/06/23 01:15:14;;;;;;;10.00;8.67;;;;;;;;;;5084621;28;20546;-81
2023/06/23 01:17:42;;;;;;;10.23;7.70;;;;;;;;;;5081888;28;20470;-81
2023/06/23 01:20:20;;;;;;;10.93;7.53;;;;;;;;;;5081190;28;20450;-82
2023/06/23 01:22:51;;;;;;;9.97;7.90;;;;;;;;;;5080698;28;20493;-82
2023/06/23 01:25:22;;;;;;;12.17;9.10;;;;;;;;;;5087625;28;20446;-81
2023/06/23 01:27:57;;;;;;;9.13;7.57;;;;;;;;;;5074576;28;20479;-82
2023/06/23 01:30:27;;;;;;;8.43;6.97;;;;;;;;;;5077026;28;20458;-81
2023/06/23 01:32:57;;;;;;;11.07;8.00;;;;;;;;;;5083439;28;20477;-81
2023/06/23 01:35:26;;;;;;;10.90;8.27;;;;;;;;;;5095905;28;21081;-81
2023/06/23 01:37:57;;;;;;;9.80;7.87;;;;;;;;;;5077617;28;20481;-80
2023/06/23 01:40:25;;;;;;;8.90;8.00;;;;;;;;;;5084342;28;20450;-82
2023/06/23 01:42:57;;;;;;;12.67;8.87;;;;;;;;;;5071856;28;20460;-80
2023/06/23 01:45:27;;;;;;;11.80;8.77;;;;;;;;;;5076399;28;20514;-81
2023/06/23 01:47:54;;;;;;;9.77;8.03;;;;;;;;;;5077817;28;20470;-80
2023/06/23 01:50:21;;;;;;;9.80;8.87;;;;;;;;;;5084827;28;20446;-80
2023/06/23 01:52:48;;;;;;;10.90;8.40;;;;;;;;;;5079042;28;20542;-81
2023/06/23 01:55:18;;;;;;;9.70;8.37;;;;;;;;;;5087096;28;20994;-80
2023/06/23 01:57:46;;;;;;;9.00;7.40;;;;;;;;;;5079005;28;20478;-82
2023/06/23 02:00:15;;;;;;;9.80;8.40;;;;;;;;;;5084799;28;20471;-81
2023/06/23 02:02:43;;;;;;;10.20;7.83;;;;;;;;;;5086648;28;20477;-80
2023/06/23 02:05:11;;;;;;;9.57;7.93;;;;;;;;;;5057985;28;20516;-81
2023/06/23 02:07:38;;;;;;;9.40;8.07;;;;;;;;;;5077302;28;20471;-82
2023/06/23 02:10:07;;;;;;;10.73;8.13;;;;;;;;;;5073989;28;20463;-81
2023/06/23 02:12:34;;;;;;;10.13;9.03;;;;;;;;;;5083251;28;20466;-80
2023/06/23 02:15:01;;;;;;;10.47;7.57;;;;;;;;;;5087542;28;20483;-80
2023/06/23 02:17:29;;;;;;;10.40;9.37;;;;;;;;;;5077911;28;20478;-81
2023/06/23 02:19:57;;;;;;;16.10;9.20;;;;;;;;;;5077366;28;20447;-82
2023/06/23 02:22:27;;;;;;;12.33;9.30;;;;;;;;;;5075738;28;21031;-82
2023/06/23 02:24:54;;;;;;;10.20;8.93;;;;;;;;;;5083013;28;20451;-80
2023/06/23 02:27:22;;;;;;;10.87;9.00;;;;;;;;;;5085132;28;20470;-80
2023/06/23 02:29:50;;;;;;;11.70;9.20;;;;;;;;;;5079071;28;20531;-81
2023/06/23 02:32:18;;;;;;;10.20;9.10;;;;;;;;;;5079098;28;20474;-81
2023/06/23 02:34:46;;;;;;;11.07;9.57;;;;;;;;;;5077423;28;20459;-81
2023/06/23 02:37:17;;;;;;;9.93;8.93;;;;;;;;;;5076773;28;20475;-80
2023/06/23 02:39:46;;;;;;;14.77;9.57;;;;;;;;;;5081136;28;20504;-81
2023/06/23 02:42:14;;;;;;;11.80;9.60;;;;;;;;;;5080990;28;20492;-81
2023/06/23 02:44:45;;;;;;;11.60;10.03;;;;;;;;;;5078936;28;20445;-81
2023/06/23 02:47:14;;;;;;;11.20;9.77;;;;;;;;;;5086410;28;20481;-80
2023/06/23 02:49:42;;;;;;;16.50;10.10;;;;;;;;;;5086174;28;20446;-82
2023/06/23 02:52:10;;;;;;;11.97;9.87;;;;;;;;;;5076516;28;20479;-82
2023/06/23 02:54:41;;;;;;;10.90;9.60;;;;;;;;;;5077861;28;20450;-81
2023/06/23 02:57:13;;;;;;;11.87;8.90;;;;;;;;;;5081384;28;20481;-81
2023/06/23 02:59:41;;;;;;;16.83;10.30;;;;;;;;;;5068258;28;20474;-82
2023/06/23 03:02:08;;;;;;;13.77;11.20;;;;;;;;;;5075676;28;21056;-82
2023/06/23 03:04:35;;;;;;;16.47;11.10;;;;;;;;;;5085750;28;20449;-82
2023/06/23 03:07:05;;;;;;;13.60;11.03;;;;;;;;;;5067010;28;20473;-81
2023/06/23 03:09:32;;;;;;;13.03;11.00;;;;;;;;;;5082938;28;20545;-81
2023/06/23 03:11:59;;;;;;;13.03;10.60;;;;;;;;;;5075593;28;20471;-81
2023/06/23 03:14:26;;;;;;;13.87;10.83;;;;;;;;;;5081647;28;20936;-82
2023/06/23 03:16:55;;;;;;;11.80;9.73;;;;;;;;;;5066854;28;20474;-81
2023/06/23 03:19:26;;;;;;;12.07;10.53;;;;;;;;;;5077705;28;20440;-81
2023/06/23 03:21:55;;;;;;;12.43;11.10;;;;;;;;;;5079041;28;20862;-82
2023/06/23 03:24:24;;;;;;;14.23;11.20;;;;;;;;;;5073481;28;20459;-80
2023/06/23 03:26:57;;;;;;;16.10;11.20;;;;;;;;;;5077644;28;20471;-82
2023/06/23 03:29:27;;;;;;;12.80;10.50;;;;;;;;;;5071598;28;20820;-82
2023/06/23 03:31:56;;;;;;;12.80;11.13;;;;;;;;;;5077015;28;20481;-82
2023/06/23 03:34:23;;;;;;;20.67;12.47;;;;;;;;;;5079823;28;20461;-81
2023/06/23 03:36:51;;;;;;;21.13;13.60;;;;;;;;;;5075852;28;20447;-81
2023/06/23 03:39:20;;;;;;;14.13;11.23;;;;;;;;;;5086082;28;20533;-81
2023/06/23 03:41:47;;;;;;;15.10;12.27;;;;;;;;;;5074427;28;20550;-81
2023/06/23 03:44:17;;;;;;;16.87;12.30;;;;;;;;;;5080798;28;20449;-81
2023/06/23 03:46:47;;;;;;;12.73;10.80;;;;;;;;;;5078919;28;20495;-81
2023/06/23 03:49:14;;;;;;;15.90;12.10;;;;;;;;;;5084925;28;20454;-81
2023/06/23 03:51:43;;;;;;;19.03;13.87;;;;;;;;;;5079000;28;20449;-81
2023/06/23 03:54:10;;;;;;;22.83;13.90;;;;;;;;;;5069827;28;20446;-81
2023/06/23 03:56:38;;;;;;;16.70;14.10;;;;;;;;;;5071333;28;20475;-81
2023/06/23 03:59:05;;;;;;;17.50;13.77;;;;;;;;;;5087521;28;20480;-80
2023/06/23 04:01:34;;;;;;;19.10;14.27;;;;;;;;;;5077822;28;20486;-80
2023/06/23 04:04:05;;;;;;;18.20;13.70;;;;;;;;;;5077742;28;20424;-81
2023/06/23 04:06:32;;;;;;;15.87;13.57;;;;;;;;;;5076677;28;20482;-81
2023/06/23 04:08:58;;;;;;;26.83;14.47;;;;;;;;;;5075209;28;20820;-80
2023/06/23 04:11:25;;;;;;;19.00;14.57;;;;;;;;;;5075030;28;20482;-81
2023/06/23 04:13:51;;;;;;;17.77;13.80;;;;;;;;;;5080645;28;20452;-81
2023/06/23 04:16:18;;;;;;;23.80;13.67;;;;;;;;;;5081498;28;20480;-81
2023/06/23 04:18:46;;;;;;;18.23;13.37;;;;;;;;;;5082948;28;20492;-81
2023/06/23 04:21:14;;;;;;;14.37;12.60;;;;;;;;;;5087977;28;20466;-81
2023/06/23 04:23:42;;;;;;;15.70;12.47;;;;;;;;;;5081705;28;20451;-81
2023/06/23 04:26:09;;;;;;;16.00;12.27;;;;;;;;;;5079087;28;20459;-81
2023/06/23 04:28:37;;;;;;;13.53;10.40;;;;;;;;;;5080397;28;20479;-80
2023/06/23 04:31:06;;;;;;;14.23;10.37;;;;;;;;;;5074225;28;20478;-80
2023/06/23 04:33:32;;;;;;;13.60;9.27;;;;;;;;;;5072883;28;20847;-80
2023/06/23 04:36:02;;;;;;;11.07;8.23;;;;;;;;;;5077781;28;20980;-81
2023/06/23 04:38:33;;;;;;;8.77;7.43;;;;;;;;;;5066521;28;20511;-81
2023/06/23 04:41:02;;;;;;;12.20;8.20;;;;;;;;;;5069173;28;20463;-81
2023/06/23 04:43:31;;;;;;;9.13;8.03;;;;;;;;;;5082329;28;20826;-81
2023/06/23 04:45:59;;;;;;;8.93;7.57;;;;;;;;;;5081517;28;20467;-81
2023/06/23 04:48:27;;;;;;;7.70;6.83;;;;;;;;;;5080595;28;20482;-82
2023/06/23 04:50:56;;;;;;;10.17;9.07;;;;;;;;;;5077195;28;20467;-81
2023/06/23 04:53:24;;;;;;;10.57;7.90;;;;;;;;;;5087364;28;20457;-81
2023/06/23 04:55:54;;;;;;;8.43;7.53;;;;;;;;;;5079985;28;20827;-81
2023/06/23 04:58:22;;;;;;;8.97;7.10;;;;;;;;;;5086213;28;20481;-81
2023/06/23 05:00:49;;;;;;;11.83;8.10;;;;;;;;;;5075802;28;20462;-81
2023/06/23 05:03:17;;;;;;;10.20;8.20;;;;;;;;;;5074970;28;20452;-82
2023/06/23 05:05:45;;;;;;;14.03;9.90;;;;;;;;;;5072707;28;20458;-81
2023/06/23 05:08:14;;;;;;;9.47;8.47;;;;;;;;;;5086303;28;20471;-80
2023/06/23 05:10:42;;;;;;;10.30;7.90;;;;;;;;;;5081512;28;20450;-81
2023/06/23 05:13:11;;;;;;;10.17;9.03;;;;;;;;;;5088352;28;20454;-82
2023/06/23 05:15:38;;;;;;;8.97;8.03;;;;;;;;;;5081375;28;20541;-82
2023/06/23 05:18:06;;;;;;;10.13;9.13;;;;;;;;;;5090253;28;20454;-80
2023/06/23 05:20:33;;;;;;;12.80;9.17;;;;;;;;;;5083065;28;20453;-80
2023/06/23 05:23:02;;;;;;;12.53;9.00;;;;;;;;;;5087141;28;20466;-81
2023/06/23 05:25:30;;;;;;;13.10;8.83;;;;;;;;;;5085254;28;20454;-82
2023/06/23 05:28:00;;;;;;;12.40;10.43;;;;;;;;;;5085262;28;20820;-81
2023/06/23 05:30:28;;;;;;;26.90;10.17;;;;;;;;;;5078284;28;20459;-82
2023/06/23 05:32:56;;;;;;;12.10;10.03;;;;;;;;;;5072365;28;20495;-80
2023/06/23 05:35:23;;;;;;;12.50;10.10;;;;;;;;;;5069523;28;20447;-81
2023/06/23 05:37:50;;;;;;;11.50;9.37;;;;;;;;;;5079111;28;20483;-80
2023/06/23 05:40:17;;;;;;;15.53;11.43;;;;;;;;;;5079424;28;20451;-81
2023/06/23 05:42:44;;;;;;;15.87;12.00;;;;;;;;;;5078297;28;21038;-80
2023/06/23 05:45:11;;;;;;;12.90;11.33;;;;;;;;;;5080742;28;20966;-80
2023/06/23 05:47:42;;;;;;;14.40;10.53;;;;;;;;;;5078436;28;20524;-80
2023/06/23 05:50:12;;;;;;;17.13;12.17;;;;;;;;;;5075812;28;20447;-79
2023/06/23 05:52:40;;;;;;;13.10;11.17;;;;;;;;;;5070773;28;20471;-80
2023/06/23 05:55:08;;;;;;;15.67;10.50;;;;;;;;;;5084285;28;20450;-80
2023/06/23 05:57:36;;;;;;;12.50;10.87;;;;;;;;;;5078371;28;20482;-81
2023/06/23 06:00:05;;;;;;;11.60;10.23;;;;;;;;;;5074205;28;20464;-79
2023/06/23 06:02:32;;;;;;;14.93;9.93;;;;;;;;;;5079389;28;20508;-81
2023/06/23 06:05:00;;;;;;;13.03;10.80;;;;;;;;;;5085253;28;20447;-80
2023/06/23 06:07:27;;;;;;;13.87;11.00;;;;;;;;;;5080164;28;20467;-79
2023/06/23 06:09:55;;;;;;;13.03;10.80;;;;;;;;;;5075868;28;20925;-79
2023/06/23 06:12:23;;;;;;;11.77;10.43;;;;;;;;;;5079678;28;21027;-79
2023/06/23 06:14:51;;;;;;;12.53;11.27;;;;;;;;;;5078247;28;20828;-80
2023/06/23 06:17:17;;;;;;;15.73;11.47;;;;;;;;;;5079356;28;20482;-80
2023/06/23 06:19:44;;;;;;;13.23;11.80;;;;;;;;;;5081736;28;20463;-80
2023/06/23 06:22:13;;;;;;;13.03;11.53;;;;;;;;;;5074164;28;20475;-81
2023/06/23 06:24:40;;;;;;;15.07;10.40;;;;;;;;;;5078529;28;20470;-80
2023/06/23 06:27:08;;;;;;;12.47;10.83;;;;;;;;;;5072332;28;20490;-80
2023/06/23 06:29:36;;;;;;;13.20;11.30;;;;;;;;;;5082349;28;20467;-82
2023/06/23 06:32:04;;;;;;;13.20;10.10;;;;;;;;;;5075921;28;20987;-80
2023/06/23 06:34:31;;;;;;;14.93;11.27;;;;;;;;;;5064659;28;20471;-80
2023/06/23 06:37:00;;;;;;;11.87;9.53;;;;;;;;;;5075029;28;20481;-80
2023/06/23 06:39:29;;;;;;;13.97;10.30;;;;;;;;;;5075532;28;20470;-82
2023/06/23 06:41:56;;;;;;;10.50;9.50;;;;;;;;;;5073029;28;21025;-81
2023/06/23 06:44:22;;;;;;;12.13;10.13;;;;;;;;;;5073420;28;20928;-81
2023/06/23 06:46:50;;;;;;;15.50;9.93;;;;;;;;;;5079382;28;20469;-80
2023/06/23 06:49:17;;;;;;;14.30;10.40;;;;;;;;;;5082138;28;20435;-82
2023/06/23 06:51:45;;;;;;;12.53;9.97;;;;;;;;;;5075463;28;20475;-82
2023/06/23 06:54:12;;;;;;;14.53;9.90;;;;;;;;;;5070653;28;20457;-81
2023/06/23 06:56:40;;;;;;;12.43;10.10;;;;;;;;;;5076516;28;20498;-82
2023/06/23 06:59:07;;;;;;;13.17;9.93;;;;;;;;;;5076556;28;20821;-82
2023/06/23 07:01:33;;;;;;;11.17;10.00;;;;;;;;;;5070402;28;20475;-81
2023/06/23 07:04:00;;;;;;;16.83;10.80;;;;;;;;;;5075537;28;20450;-81
2023/06/23 07:06:27;;;;;;;14.63;10.20;;;;;;;;;;5071517;28;20474;-82
2023/06/23 07:08:54;;;;;;;14.47;10.37;;;;;;;;;;5079275;28;20506;-80
2023/06/23 07:11:20;;;;;;;14.10;10.50;;;;;;;;;;5075339;28;20481;-81
2023/06/23 07:13:48;;;;;;;15.80;11.07;;;;;;;;;;5083972;28;20455;-82
2023/06/23 07:16:15;;;;;;;14.50;11.80;;;;;;;;;;5082268;28;20474;-83
2023/06/23 07:18:41;;;;;;;14.47;10.57;;;;;;;;;;5079349;28;20466;-81
2023/06/23 07:21:09;;;;;;;12.57;10.00;;;;;;;;;;5073228;28;20471;-81
2023/06/23 07:23:35;;;;;;;11.03;9.83;;;;;;;;;;5079536;28;20450;-82
2023/06/23 07:26:02;;;;;;;15.33;10.40;;;;;;;;;;5080126;28;20528;-82
2023/06/23 07:28:28;;;;;;;14.53;10.47;;;;;;;;;;5075234;28;20934;-82
2023/06/23 07:30:55;;;;;;;17.23;11.50;;;;;;;;;;5071186;28;20475;-82
2023/06/23 07:33:22;;;;;;;18.13;11.70;;;;;;;;;;5083284;28;20465;-81
2023/06/23 07:35:48;;;;;;;17.13;10.97;;;;;;;;;;5083589;28;20474;-81
2023/06/23 07:38:15;;;;;;;14.23;11.70;;;;;;;;;;5086795;28;20491;-82
2023/06/23 07:40:41;;;;;;;13.50;11.20;;;;;;;;;;5074360;28;20466;-82
2023/06/23 07:43:08;;;;;;;14.80;9.90;;;;;;;;;;5070583;28;20807;-81
2023/06/23 07:45:34;;;;;;;14.67;11.50;;;;;;;;;;5080073;28;20475;-81
2023/06/23 07:48:03;;;;;;;12.83;9.60;;;;;;;;;;5081421;28;20469;-82
2023/06/23 07:50:29;;;;;;;15.50;9.43;;;;;;;;;;5079492;28;20462;-80
2023/06/23 07:52:55;;;;;;;11.73;10.20;;;;;;;;;;5076014;28;20466;-81
2023/06/23 07:55:22;;;;;;;15.13;9.73;;;;;;;;;;5075613;28;20475;-81
2023/06/23 07:57:50;;;;;;;13.17;11.23;;;;;;;;;;5074810;28;20493;-82
2023/06/23 08:00:17;;;;;;;12.80;10.53;;;;;;;;;;5083962;28;20859;-81
2023/06/23 08:02:43;;;;;;;11.80;10.57;;;;;;;;;;5073687;28;20455;-81
2023/06/23 08:05:11;;;;;;;12.27;10.87;;;;;;;;;;5081646;28;21018;-83
2023/06/23 08:07:39;;;;;;;17.77;10.77;;;;;;;;;;5071557;28;20475;-82
2023/06/23 08:10:05;;;;;;;14.97;11.10;;;;;;;;;;5071285;28;20469;-82
2023/06/23 08:12:32;;;;;;;13.90;10.13;;;;;;;;;;5066504;28;20456;-81
2023/06/23 08:14:59;;;;;;;17.07;12.13;;;;;;;;;;5075124;28;20466;-81
2023/06/23 08:17:25;;;;;;;14.80;12.43;;;;;;;;;;5071694;28;20557;-82
2023/06/23 08:19:51;;;;;;;19.03;13.43;;;;;;;;;;5071296;28;20466;-82
2023/06/23 08:22:19;;;;;;;16.20;12.83;;;;;;;;;;5085460;28;20466;-82
2023/06/23 08:24:46;;;;;;;17.20;12.07;;;;;;;;;;5073356;28;20951;-80
2023/06/23 08:27:12;;;;;;;18.33;13.73;;;;;;;;;;5077664;28;20478;-80
2023/06/23 08:29:39;;;;;;;18.20;13.57;;;;;;;;;;5076055;28;20462;-82
2023/06/23 08:32:05;;;;;;;18.20;13.30;;;;;;;;;;5080040;28;20489;-81
2023/06/23 08:34:32;;;;;;;16.60;13.50;;;;;;;;;;5081149;28;20442;-82
2023/06/23 08:36:58;;;;;;;20.40;13.80;;;;;;;;;;5077513;28;20847;-82
2023/06/23 08:39:26;;;;;;;16.27;13.20;;;;;;;;;;5085675;28;20541;-82
2023/06/23 08:41:54;;;;;;;14.60;12.93;;;;;;;;;;5083333;28;20462;-82
2023/06/23 08:44:22;;;;;;;17.40;13.00;;;;;;;;;;5074372;28;20435;-83
2023/06/23 08:46:52;;;;;;;18.47;12.83;;;;;;;;;;5075628;28;21004;-81
2023/06/23 08:49:22;;;;;;;15.87;13.43;;;;;;;;;;5065190;28;20454;-81
2023/06/23 08:51:49;;;;;;;19.10;12.57;;;;;;;;;;5084160;28;20490;-81
2023/06/23 08:54:16;;;;;;;17.30;13.13;;;;;;;;;;5077394;28;20461;-81
2023/06/23 08:56:44;;;;;;;16.33;12.80;;;;;;;;;;5085638;28;20543;-82
2023/06/23 08:59:11;;;;;;;15.07;13.43;;;;;;;;;;5082750;28;20472;-82
2023/06/23 09:01:37;;;;;;;15.50;12.43;;;;;;;;;;5076156;28;20470;-81
2023/06/23 09:04:04;;;;;;;14.13;11.63;;;;;;;;;;5079494;28;20462;-81
2023/06/23 09:06:30;;;;;;;16.27;12.80;;;;;;;;;;5084227;28;20486;-82
2023/06/23 09:08:58;;;;;;;18.50;12.17;;;;;;;;;;5058997;28;20466;-82
2023/06/23 09:11:25;;;;;;;17.63;12.27;;;;;;;;;;5075976;28;20466;-81
2023/06/23 09:13:53;;;;;;;19.73;12.47;;;;;;;;;;5077302;28;20454;-82
2023/06/23 09:16:23;;;;;;;16.47;12.40;;;;;;;;;;5073180;28;20471;-82
2023/06/23 09:18:51;;;;;;;16.33;12.70;;;;;;;;;;5070924;28;20483;-82
2023/06/23 09:21:20;;;;;;;17.17;12.13;;;;;;;;;;5072633;28;20498;-81
2023/06/23 09:24:01;;;;;;;19.93;13.33;;;;;;;;;;5072244;28;20534;-81
2023/06/23 09:26:27;;;;;;;15.33;12.97;;;;;;;;;;5074748;28;20475;-81
2023/06/23 09:29:13;;;;;;;15.10;12.30;;;;;;;;;;5077529;28;20984;-82
2023/06/23 09:31:40;;;;;;;18.23;12.60;;;;;;;;;;5074439;28;20480;-82
2023/06/23 09:34:07;;;;;;;16.63;12.47;;;;;;;;;;5082431;28;20512;-82
2023/06/23 09:36:34;;;;;;;16.70;12.93;;;;;;;;;;5073928;28;20497;-82
2023/06/23 09:39:01;;;;;;;18.47;14.20;;;;;;;;;;5077186;28;20845;-81
2023/06/23 09:41:31;;;;;;;16.90;12.80;;;;;;;;;;5080749;28;21002;-81
2023/06/23 09:43:59;;;;;;;18.77;12.90;;;;;;;;;;5083255;28;20450;-81
2023/06/23 09:46:27;;;;;;;21.27;13.57;;;;;;;;;;5081868;28;20471;-81
2023/06/23 09:48:54;;;;;;;19.23;12.97;;;;;;;;;;5077409;28;20528;-82
2023/06/23 09:51:21;;;;;;;17.23;14.13;;;;;;;;;;5081431;28;20501;-82
2023/06/23 09:53:48;;;;;;;17.23;12.80;;;;;;;;;;5074478;28;20551;-81
2023/06/23 09:56:16;;;;;;;21.23;14.93;;;;;;;;;;5079455;28;20478;-80
2023/06/23 09:58:43;;;;;;;17.97;13.70;;;;;;;;;;5077477;28;20484;-81
2023/06/23 10:01:11;;;;;;;19.10;14.20;;;;;;;;;;5072095;28;20482;-81
2023/06/23 10:03:44;;;;;;;17.60;14.63;;;;;;;;;;5079192;28;20516;-82
2023/06/23 10:06:21;;;;;;;14.57;11.47;;;;;;;;;;5075186;28;20475;-82
2023/06/23 10:08:47;;;;;;;14.87;12.37;;;;;;;;;;5083014;28;20532;-82
2023/06/23 10:11:16;;;;;;;14.83;13.13;;;;;;;;;;5075889;28;20992;-82
2023/06/23 10:13:43;;;;;;;16.03;12.10;;;;;;;;;;5079808;28;20837;-81
2023/06/23 10:16:10;;;;;;;16.27;11.07;;;;;;;;;;5077363;28;20557;-81
2023/06/23 10:18:37;;;;;;;16.30;11.40;;;;;;;;;;5074308;28;20892;-82
2023/06/23 10:21:04;;;;;;;12.77;9.93;;;;;;;;;;5077071;28;20475;-81
2023/06/23 10:23:31;;;;;;;17.33;11.83;;;;;;;;;;5092031;28;20943;-81
2023/06/23 10:25:58;;;;;;;17.20;12.40;;;;;;;;;;5073936;28;20827;-81
2023/06/23 10:28:25;;;;;;;16.63;13.37;;;;;;;;;;5082200;28;20475;-81
2023/06/23 10:30:52;;;;;;;13.90;10.70;;;;;;;;;;5075082;28;20463;-81
2023/06/23 10:33:20;;;;;;;20.43;11.83;;;;;;;;;;5078450;28;20463;-81
2023/06/23 10:35:48;;;;;;;13.87;11.30;;;;;;;;;;5085289;28;20474;-81
2023/06/23 10:38:18;;;;;;;12.60;11.30;;;;;;;;;;5073234;28;20483;-81
2023/06/23 10:40:49;;;;;;;14.90;11.40;;;;;;;;;;5079799;28;20489;-79
2023/06/23 10:43:16;;;;;;;14.30;10.10;;;;;;;;;;5081563;28;20478;-80
2023/06/23 10:45:44;;;;;;;20.40;13.20;;;;;;;;;;5076170;28;20471;-80
2023/06/23 10:48:10;;;;;;;16.47;14.13;;;;;;;;;;5076676;28;20477;-80
2023/06/23 10:50:40;;;;;;;14.90;12.73;;;;;;;;;;5078283;28;20852;-81
2023/06/23 10:53:10;;;;;;;26.97;14.30;;;;;;;;;;5077257;28;20459;-80
2023/06/23 10:55:40;;;;;;;15.40;12.47;;;;;;;;;;5081154;28;20466;-81
2023/06/23 10:58:10;;;;;;;13.40;11.90;;;;;;;;;;5078964;28;20536;-81
2023/06/23 11:00:37;;;;;;;16.13;11.07;;;;;;;;;;5079723;28;20477;-80
2023/06/23 11:03:08;;;;;;;14.77;11.63;;;;;;;;;;5070288;28;20857;-80
2023/06/23 11:05:34;;;;;;;19.00;11.20;;;;;;;;;;5085527;28;20479;-80
2023/06/23 11:08:03;;;;;;;15.20;11.30;;;;;;;;;;5078493;28;20474;-80
2023/06/23 11:10:48;;;;;;;19.13;13.23;;;;;;;;;;5077132;28;20466;-80
2023/06/23 11:13:14;;;;;;;13.27;10.97;;;;;;;;;;5075902;28;20451;-80
2023/06/23 11:15:41;;;;;;;15.00;11.23;;;;;;;;;;5076910;28;20474;-80
2023/06/23 11:18:08;;;;;;;19.13;13.23;;;;;;;;;;5080781;28;20508;-81
2023/06/23 11:20:35;;;;;;;20.43;12.70;;;;;;;;;;5075871;28;20466;-80
2023/06/23 11:23:04;;;;;;;12.90;10.70;;;;;;;;;;5080535;28;20827;-80
2023/06/23 11:25:32;;;;;;;15.33;10.30;;;;;;;;;;5084343;28;20482;-81
2023/06/23 11:28:17;;;;;;;15.57;11.60;;;;;;;;;;5075108;28;20462;-80
2023/06/23 11:30:52;;;;;;;16.20;11.77;;;;;;;;;;5078346;28;20467;-81
2023/06/23 11:33:28;;;;;;;13.23;10.80;;;;;;;;;;5081822;28;20996;-81
2023/06/23 11:35:55;;;;;;;15.13;12.00;;;;;;;;;;5074739;28;20471;-81
2023/06/23 11:38:23;;;;;;;14.70;11.77;;;;;;;;;;5076031;28;20474;-81
2023/06/23 11:40:50;;;;;;;12.90;9.70;;;;;;;;;;5066543;28;20463;-81
2023/06/23 11:43:19;;;;;;;13.40;11.00;;;;;;;;;;5082109;28;20921;-81
2023/06/23 11:45:47;;;;;;;14.60;10.20;;;;;;;;;;5076755;28;20482;-81
2023/06/23 11:48:14;;;;;;;12.40;11.10;;;;;;;;;;5074228;28;20471;-79
2023/06/23 11:50:41;;;;;;;13.63;11.07;;;;;;;;;;5070006;28;20472;-82
2023/06/23 11:53:08;;;;;;;15.00;11.27;;;;;;;;;;5072373;28;20478;-81
2023/06/23 11:55:35;;;;;;;11.57;10.37;;;;;;;;;;5072385;28;20478;-81
2023/06/23 11:58:03;;;;;;;14.60;10.97;;;;;;;;;;5080165;28;20981;-81
2023/06/23 12:00:30;;;;;;;11.40;9.23;;;;;;;;;;5078341;28;20466;-80
2023/06/23 12:02:58;;;;;;;12.60;9.80;;;;;;;;;;5079611;28;20539;-81
2023/06/23 12:05:27;;;;;;;20.97;10.97;;;;;;;;;;5079265;28;20473;-81
2023/06/23 12:07:54;;;;;;;12.37;10.20;;;;;;;;;;5088898;28;20467;-81
2023/06/23 12:10:24;;;;;;;18.87;10.20;;;;;;;;;;5078895;28;20474;-80
2023/06/23 12:12:54;;;;;;;10.27;8.90;;;;;;;;;;5080358;28;20833;-80
2023/06/23 12:15:22;;;;;;;13.80;8.93;;;;;;;;;;5076510;28;20478;-80
2023/06/23 12:17:48;;;;;;;8.93;8.13;;;;;;;;;;5071666;28;20477;-81
2023/06/23 12:20:18;;;;;;;10.20;8.33;;;;;;;;;;5065171;28;20491;-78
2023/06/23 12:22:44;;;;;;;11.07;8.03;;;;;;;;;;5076280;28;20546;-79
2023/06/23 12:25:11;;;;;;;10.50;6.23;;;;;;;;;;5080249;28;20474;-79
2023/06/23 12:27:38;;;;;;;8.23;7.13;;;;;;;;;;5075064;28;21038;-80
2023/06/23 12:30:20;;;;;;;8.70;7.47;;;;;;;;;;5084413;28;20476;-79
2023/06/23 12:32:46;;;;;;;8.20;7.00;;;;;;;;;;5081667;28;20864;-80
2023/06/23 12:35:15;;;;;;;9.93;7.13;;;;;;;;;;5075126;28;20497;-80
2023/06/23 12:37:47;;;;;;;6.70;6.00;;;;;;;;;;5074461;28;21007;-81
2023/06/23 12:40:28;;;;;;;8.63;7.03;;;;;;;;;;5076719;28;20503;-81
2023/06/23 12:42:55;;;;;;;8.83;6.80;;;;;;;;;;5074256;28;20489;-81
2023/06/23 12:45:24;;;;;;;12.60;7.57;;;;;;;;;;5074802;28;20478;-81
2023/06/23 12:47:51;;;;;;;8.27;7.47;;;;;;;;;;5076222;28;20590;-82
2023/06/23 12:50:25;;;;;;;10.80;7.00;;;;;;;;;;5079312;28;20466;-81
2023/06/23 12:52:52;;;;;;;7.97;7.17;;;;;;;;;;5073031;28;20450;-80
2023/06/23 12:55:18;;;;;;;8.57;7.40;;;;;;;;;;5066275;28;20471;-79
2023/06/23 12:57:45;;;;;;;9.10;6.17;;;;;;;;;;5074197;28;20983;-80
2023/06/23 13:00:12;;;;;;;8.27;5.97;;;;;;;;;;5076765;28;20487;-81
2023/06/23 13:02:40;;;;;;;6.17;4.83;;;;;;;;;;5083836;28;20544;-80
2023/06/23 13:05:07;;;;;;;7.07;5.47;;;;;;;;;;5081238;28;20474;-80
2023/06/23 13:07:33;;;;;;;8.47;5.60;;;;;;;;;;5093616;28;20474;-80
2023/06/23 13:09:59;;;;;;;4.73;4.33;;;;;;;;;;5075866;28;20466;-80
2023/06/23 13:12:26;;;;;;;6.07;5.47;;;;;;;;;;5077937;28;20809;-81
2023/06/23 13:14:53;;;;;;;5.90;5.37;;;;;;;;;;5080029;28;20467;-81
2023/06/23 13:17:19;;;;;;;5.83;5.33;;;;;;;;;;5080274;28;20498;-81
2023/06/23 13:19:47;;;;;;;6.43;5.33;;;;;;;;;;5080862;28;20474;-80
2023/06/23 13:22:13;;;;;;;5.17;4.20;;;;;;;;;;5084035;28;20465;-81
2023/06/23 13:24:40;;;;;;;5.13;4.53;;;;;;;;;;5083524;28;20462;-81
2023/06/23 13:27:08;;;;;;;6.70;4.43;;;;;;;;;;5083160;28;20442;-80
2023/06/23 13:29:36;;;;;;;9.33;4.60;;;;;;;;;;5077141;28;20533;-80
2023/06/23 13:32:03;;;;;;;4.80;4.00;;;;;;;;;;5081823;28;20480;-80
2023/06/23 13:34:29;;;;;;;4.53;3.80;;;;;;;;;;5082196;28;20500;-80
2023/06/23 13:36:57;;;;;;;6.10;4.63;;;;;;;;;;5065513;28;21009;-80
2023/06/23 13:39:23;;;;;;;5.40;4.60;;;;;;;;;;5032182;28;20485;-81
2023/06/23 13:41:50;;;;;;;7.33;5.27;;;;;;;;;;5048746;28;20549;-81
2023/06/23 13:44:17;;;;;;;4.90;4.40;;;;;;;;;;5067839;28;20906;-80
2023/06/23 13:46:45;;;;;;;6.23;5.63;;;;;;;;;;5056490;28;20599;-81
2023/06/23 13:49:12;;;;;;;7.90;5.60;;;;;;;;;;5062747;28;20470;-81
2023/06/23 13:51:38;;;;;;;5.77;4.70;;;;;;;;;;5058324;28;20468;-80
2023/06/23 13:54:06;;;;;;;7.03;5.00;;;;;;;;;;5065673;28;21014;-80
2023/06/23 13:56:33;;;;;;;7.03;5.70;;;;;;;;;;5056941;28;20472;-81
2023/06/23 13:59:01;;;;;;;5.30;4.80;;;;;;;;;;5058955;28;20483;-80
2023/06/23 14:01:28;;;;;;;5.60;5.10;;;;;;;;;;5060215;28;20475;-81
2023/06/23 14:03:54;;;;;;;5.27;4.87;;;;;;;;;;5060406;28;20469;-78
2023/06/23 14:06:21;;;;;;;6.57;4.60;;;;;;;;;;5057299;28;20475;-80
2023/06/23 14:08:48;;;;;;;5.53;5.03;;;;;;;;;;5063214;28;20472;-79
2023/06/23 14:11:15;;;;;;;5.70;5.10;;;;;;;;;;5056465;28;20479;-81
2023/06/23 14:13:42;;;;;;;5.93;4.50;;;;;;;;;;5063984;28;20448;-80
2023/06/23 14:16:12;;;;;;;7.10;5.57;;;;;;;;;;5056911;28;20483;-81
2023/06/23 14:18:38;;;;;;;5.67;5.27;;;;;;;;;;5054032;28;20497;-80
2023/06/23 14:21:05;;;;;;;7.20;6.50;;;;;;;;;;5056892;28;20467;-81
2023/06/23 14:23:31;;;;;;;5.60;5.00;;;;;;;;;;5056215;28;20440;-81
2023/06/23 14:25:57;;;;;;;7.07;4.70;;;;;;;;;;5060687;28;20473;-81
2023/06/23 14:28:26;;;;;;;5.90;5.20;;;;;;;;;;5063610;28;20479;-80
2023/06/23 14:30:53;;;;;;;6.40;5.83;;;;;;;;;;5059781;28;20980;-80